sensor_id;sensor_type;location;lat;lon;timestamp;temperature;humidity
2407;DHT22;37709;53.480;9.688;2022-09-09T00:04:28;13.90;99.90
2407;DHT22;37709;53.480;9.688;2022-09-09T00:07:09;13.90;99.90
2407;DHT22;37709;53.480;9.688;2022-09-09T00:09:49;13.90;99.90
2407;DHT22;37709;53.480;9.688;2022-09-09T00:12:29;13.90;99.90
2407;DHT22;37709;53.480;9.688;2022-09-09T00:15:14;13.90;99.90
2407;DHT22;37709;53.480;9.688;2022-09-09T00:17:55;13.90;99.90
2407;DHT22;37709;53.480;9.688;2022-09-09T00:20:50;13.90;99.90
2407;DHT22;37709;53.480;9.688;2022-09-09T00:23:22;13.90;99.90
2407;DHT22;37709;53.480;9.688;2022-09-09T00:26:10;13.90;99.90
2407;DHT22;37709;53.480;9.688;2022-09-09T00:31:23;13.90;99.90
2407;DHT22;37709;53.480;9.688;2022-09-09T00:33:53;13.90;99.90
2407;DHT22;37709;53.480;9.688;2022-09-09T00:36:23;13.80;99.90
2407;DHT22;37709;53.480;9.688;2022-09-09T00:38:56;13.80;99.90
2407;DHT22;37709;53.480;9.688;2022-09-09T00:44:37;13.70;99.90
2407;DHT22;37709;53.480;9.688;2022-09-09T00:47:21;13.60;99.90
2407;DHT22;37709;53.480;9.688;2022-09-09T00:56:16;13.30;99.90
2407;DHT22;37709;53.480;9.688;2022-09-09T01:01:45;13.20;99.90
2407;DHT22;37709;53.480;9.688;2022-09-09T01:04:18;13.10;99.90
2407;DHT22;37709;53.480;9.688;2022-09-09T01:06:51;13.00;99.90
2407;DHT22;37709;53.480;9.688;2022-09-09T01:09:44;12.90;99.90
2407;DHT22;37709;53.480;9.688;2022-09-09T01:15:07;12.90;99.90
2407;DHT22;37709;53.480;9.688;2022-09-09T01:20:17;12.90;99.90
2407;DHT22;37709;53.480;9.688;2022-09-09T01:24:01;12.80;99.90
2407;DHT22;37709;53.480;9.688;2022-09-09T01:26:30;12.80;99.90
2407;DHT22;37709;53.480;9.688;2022-09-09T01:29:04;12.80;99.90
2407;DHT22;37709;53.480;9.688;2022-09-09T01:31:58;12.70;99.90
2407;DHT22;37709;53.480;9.688;2022-09-09T01:34:38;12.70;99.90
2407;DHT22;37709;53.480;9.688;2022-09-09T01:37:09;12.70;99.90
2407;DHT22;37709;53.480;9.688;2022-09-09T01:39:41;12.70;99.90
2407;DHT22;37709;53.480;9.688;2022-09-09T01:42:15;12.70;99.90
2407;DHT22;37709;53.480;9.688;2022-09-09T01:44:43;12.60;99.90
2407;DHT22;37709;53.480;9.688;2022-09-09T01:47:13;12.50;99.90
2407;DHT22;37709;53.480;9.688;2022-09-09T01:50:05;12.50;99.90
2407;DHT22;37709;53.480;9.688;2022-09-09T01:52:36;12.40;99.90
2407;DHT22;37709;53.480;9.688;2022-09-09T01:55:08;12.40;99.90
2407;DHT22;37709;53.480;9.688;2022-09-09T02:00:13;12.30;99.90
2407;DHT22;37709;53.480;9.688;2022-09-09T02:05:55;12.30;99.90
2407;DHT22;37709;53.480;9.688;2022-09-09T02:08:57;12.30;99.90
2407;DHT22;37709;53.480;9.688;2022-09-09T02:11:28;12.20;99.90
2407;DHT22;37709;53.480;9.688;2022-09-09T02:14:14;12.30;99.90
2407;DHT22;37709;53.480;9.688;2022-09-09T02:17:10;12.30;99.90
2407;DHT22;37709;53.480;9.688;2022-09-09T02:19:59;12.40;99.90
2407;DHT22;37709;53.480;9.688;2022-09-09T02:22:53;12.40;99.90
2407;DHT22;37709;53.480;9.688;2022-09-09T02:25:26;12.40;99.90
2407;DHT22;37709;53.480;9.688;2022-09-09T02:27:58;12.50;99.90
2407;DHT22;37709;53.480;9.688;2022-09-09T02:30:28;12.50;99.90
2407;DHT22;37709;53.480;9.688;2022-09-09T02:33:00;12.40;99.90
2407;DHT22;37709;53.480;9.688;2022-09-09T02:35:43;12.50;99.90
2407;DHT22;37709;53.480;9.688;2022-09-09T02:38:16;12.40;99.90
2407;DHT22;37709;53.480;9.688;2022-09-09T02:40:56;12.40;99.90
2407;DHT22;37709;53.480;9.688;2022-09-09T02:43:23;12.40;99.90
2407;DHT22;37709;53.480;9.688;2022-09-09T02:51:51;12.40;99.90
2407;DHT22;37709;53.480;9.688;2022-09-09T02:57:12;12.30;99.90
2407;DHT22;37709;53.480;9.688;2022-09-09T02:59:43;12.30;99.90
2407;DHT22;37709;53.480;9.688;2022-09-09T03:02:11;12.30;99.90
2407;DHT22;37709;53.480;9.688;2022-09-09T03:04:42;12.30;99.90
2407;DHT22;37709;53.480;9.688;2022-09-09T03:07:19;12.20;99.90
2407;DHT22;37709;53.480;9.688;2022-09-09T03:09:47;12.10;99.90
2407;DHT22;37709;53.480;9.688;2022-09-09T03:12:17;12.10;99.90
2407;DHT22;37709;53.480;9.688;2022-09-09T03:14:44;12.10;99.90
2407;DHT22;37709;53.480;9.688;2022-09-09T03:17:13;12.00;99.90
2407;DHT22;37709;53.480;9.688;2022-09-09T03:19:48;11.90;99.90
2407;DHT22;37709;53.480;9.688;2022-09-09T03:22:17;11.90;99.90
2407;DHT22;37709;53.480;9.688;2022-09-09T03:24:46;12.00;99.90
2407;DHT22;37709;53.480;9.688;2022-09-09T03:27:14;11.90;99.90
2407;DHT22;37709;53.480;9.688;2022-09-09T03:29:42;11.90;99.90
2407;DHT22;37709;53.480;9.688;2022-09-09T03:32:14;11.90;99.90
2407;DHT22;37709;53.480;9.688;2022-09-09T03:34:44;11.90;99.90
2407;DHT22;37709;53.480;9.688;2022-09-09T03:37:14;12.00;99.90
2407;DHT22;37709;53.480;9.688;2022-09-09T03:39:42;12.10;99.90
2407;DHT22;37709;53.480;9.688;2022-09-09T03:42:14;12.10;99.90
2407;DHT22;37709;53.480;9.688;2022-09-09T03:44:47;12.10;99.90
2407;DHT22;37709;53.480;9.688;2022-09-09T03:47:20;12.10;99.90
2407;DHT22;37709;53.480;9.688;2022-09-09T03:49:52;12.00;99.90
2407;DHT22;37709;53.480;9.688;2022-09-09T03:52:20;12.10;99.90
2407;DHT22;37709;53.480;9.688;2022-09-09T03:54:53;12.00;99.90
2407;DHT22;37709;53.480;9.688;2022-09-09T03:57:21;12.00;99.90
2407;DHT22;37709;53.480;9.688;2022-09-09T03:59:49;12.00;99.90
2407;DHT22;37709;53.480;9.688;2022-09-09T04:02:16;12.00;99.90
2407;DHT22;37709;53.480;9.688;2022-09-09T04:04:44;12.00;99.90
2407;DHT22;37709;53.480;9.688;2022-09-09T04:07:11;12.10;99.90
2407;DHT22;37709;53.480;9.688;2022-09-09T04:09:40;12.10;99.90
2407;DHT22;37709;53.480;9.688;2022-09-09T04:12:07;12.10;99.90
2407;DHT22;37709;53.480;9.688;2022-09-09T04:14:35;12.10;99.90
2407;DHT22;37709;53.480;9.688;2022-09-09T04:17:07;12.00;99.90
2407;DHT22;37709;53.480;9.688;2022-09-09T04:19:34;12.00;99.90
2407;DHT22;37709;53.480;9.688;2022-09-09T04:22:02;12.00;99.90
2407;DHT22;37709;53.480;9.688;2022-09-09T04:24:30;12.10;99.90
2407;DHT22;37709;53.480;9.688;2022-09-09T04:26:59;12.00;99.90
2407;DHT22;37709;53.480;9.688;2022-09-09T04:29:26;12.00;99.90
2407;DHT22;37709;53.480;9.688;2022-09-09T04:31:54;12.00;99.90
2407;DHT22;37709;53.480;9.688;2022-09-09T04:34:22;12.10;99.90
2407;DHT22;37709;53.480;9.688;2022-09-09T04:36:50;12.20;99.90
2407;DHT22;37709;53.480;9.688;2022-09-09T04:39:19;12.10;99.90
2407;DHT22;37709;53.480;9.688;2022-09-09T04:41:48;12.10;99.90
2407;DHT22;37709;53.480;9.688;2022-09-09T04:44:16;12.10;99.90
2407;DHT22;37709;53.480;9.688;2022-09-09T04:46:44;12.10;99.90
2407;DHT22;37709;53.480;9.688;2022-09-09T04:49:12;12.10;99.90
2407;DHT22;37709;53.480;9.688;2022-09-09T04:51:42;11.90;99.90
2407;DHT22;37709;53.480;9.688;2022-09-09T04:54:10;12.00;99.90
2407;DHT22;37709;53.480;9.688;2022-09-09T04:56:40;11.90;99.90
2407;DHT22;37709;53.480;9.688;2022-09-09T04:59:11;12.00;99.90
2407;DHT22;37709;53.480;9.688;2022-09-09T05:01:48;12.00;99.90
2407;DHT22;37709;53.480;9.688;2022-09-09T05:04:17;12.00;99.90
2407;DHT22;37709;53.480;9.688;2022-09-09T05:06:47;12.00;99.90
2407;DHT22;37709;53.480;9.688;2022-09-09T05:09:15;12.10;99.90
2407;DHT22;37709;53.480;9.688;2022-09-09T05:11:44;12.00;99.90
2407;DHT22;37709;53.480;9.688;2022-09-09T05:14:20;12.10;99.90
2407;DHT22;37709;53.480;9.688;2022-09-09T05:16:47;12.20;99.90
2407;DHT22;37709;53.480;9.688;2022-09-09T05:19:17;12.20;99.90
2407;DHT22;37709;53.480;9.688;2022-09-09T05:21:48;12.30;99.90
2407;DHT22;37709;53.480;9.688;2022-09-09T05:24:20;12.50;99.90
2407;DHT22;37709;53.480;9.688;2022-09-09T05:26:52;12.50;99.90
2407;DHT22;37709;53.480;9.688;2022-09-09T05:29:20;12.70;99.90
2407;DHT22;37709;53.480;9.688;2022-09-09T05:31:47;12.70;99.90
2407;DHT22;37709;53.480;9.688;2022-09-09T05:34:21;12.80;99.90
2407;DHT22;37709;53.480;9.688;2022-09-09T05:36:51;12.80;99.90
2407;DHT22;37709;53.480;9.688;2022-09-09T05:39:20;12.80;99.90
2407;DHT22;37709;53.480;9.688;2022-09-09T05:41:47;12.80;99.90
2407;DHT22;37709;53.480;9.688;2022-09-09T05:44:16;12.90;99.90
2407;DHT22;37709;53.480;9.688;2022-09-09T05:46:44;12.90;99.90
2407;DHT22;37709;53.480;9.688;2022-09-09T05:49:13;12.90;99.90
2407;DHT22;37709;53.480;9.688;2022-09-09T05:51:43;13.00;99.90
2407;DHT22;37709;53.480;9.688;2022-09-09T05:54:13;13.00;99.90
2407;DHT22;37709;53.480;9.688;2022-09-09T05:56:46;13.00;99.90
2407;DHT22;37709;53.480;9.688;2022-09-09T05:59:18;13.10;99.90
2407;DHT22;37709;53.480;9.688;2022-09-09T06:01:46;13.10;99.90
2407;DHT22;37709;53.480;9.688;2022-09-09T06:04:21;13.10;99.90
2407;DHT22;37709;53.480;9.688;2022-09-09T06:06:50;13.20;99.90
2407;DHT22;37709;53.480;9.688;2022-09-09T06:09:20;13.20;99.90
2407;DHT22;37709;53.480;9.688;2022-09-09T06:11:48;13.30;99.90
2407;DHT22;37709;53.480;9.688;2022-09-09T06:14:15;13.40;99.90
2407;DHT22;37709;53.480;9.688;2022-09-09T06:16:47;13.50;99.90
2407;DHT22;37709;53.480;9.688;2022-09-09T06:19:18;13.50;99.90
2407;DHT22;37709;53.480;9.688;2022-09-09T06:21:48;13.60;99.90
2407;DHT22;37709;53.480;9.688;2022-09-09T06:24:16;13.60;99.90
2407;DHT22;37709;53.480;9.688;2022-09-09T06:26:46;13.70;99.90
2407;DHT22;37709;53.480;9.688;2022-09-09T06:29:19;13.80;99.90
2407;DHT22;37709;53.480;9.688;2022-09-09T06:31:47;13.80;99.90
2407;DHT22;37709;53.480;9.688;2022-09-09T06:34:23;13.90;99.90
2407;DHT22;37709;53.480;9.688;2022-09-09T06:36:54;13.90;99.90
2407;DHT22;37709;53.480;9.688;2022-09-09T06:39:26;13.90;99.90
2407;DHT22;37709;53.480;9.688;2022-09-09T06:41:55;14.00;99.90
2407;DHT22;37709;53.480;9.688;2022-09-09T06:44:40;14.00;99.90
2407;DHT22;37709;53.480;9.688;2022-09-09T06:47:13;14.20;99.90
2407;DHT22;37709;53.480;9.688;2022-09-09T06:49:42;14.20;99.90
2407;DHT22;37709;53.480;9.688;2022-09-09T06:52:14;14.30;99.90
2407;DHT22;37709;53.480;9.688;2022-09-09T06:54:42;14.50;99.90
2407;DHT22;37709;53.480;9.688;2022-09-09T06:57:10;14.70;99.90
2407;DHT22;37709;53.480;9.688;2022-09-09T06:59:57;14.80;99.90
2407;DHT22;37709;53.480;9.688;2022-09-09T07:02:24;14.80;99.90
2407;DHT22;37709;53.480;9.688;2022-09-09T07:04:53;15.00;99.90
2407;DHT22;37709;53.480;9.688;2022-09-09T07:07:20;15.00;99.90
2407;DHT22;37709;53.480;9.688;2022-09-09T07:09:48;15.10;99.90
2407;DHT22;37709;53.480;9.688;2022-09-09T07:12:16;15.10;99.90
2407;DHT22;37709;53.480;9.688;2022-09-09T07:14:50;15.20;99.90
2407;DHT22;37709;53.480;9.688;2022-09-09T07:17:18;15.10;99.90
2407;DHT22;37709;53.480;9.688;2022-09-09T07:19:45;15.00;99.90
2407;DHT22;37709;53.480;9.688;2022-09-09T07:22:14;15.10;99.90
2407;DHT22;37709;53.480;9.688;2022-09-09T07:24:44;15.30;99.90
2407;DHT22;37709;53.480;9.688;2022-09-09T07:27:13;15.50;99.90
2407;DHT22;37709;53.480;9.688;2022-09-09T07:29:41;15.80;99.90
2407;DHT22;37709;53.480;9.688;2022-09-09T07:32:09;16.10;99.90
2407;DHT22;37709;53.480;9.688;2022-09-09T07:34:37;16.30;99.90
2407;DHT22;37709;53.480;9.688;2022-09-09T07:37:06;16.40;99.90
2407;DHT22;37709;53.480;9.688;2022-09-09T07:39:34;16.60;99.90
2407;DHT22;37709;53.480;9.688;2022-09-09T07:42:02;16.80;99.90
2407;DHT22;37709;53.480;9.688;2022-09-09T07:44:32;17.00;99.90
2407;DHT22;37709;53.480;9.688;2022-09-09T07:47:06;17.30;99.90
2407;DHT22;37709;53.480;9.688;2022-09-09T07:49:38;18.00;99.90
2407;DHT22;37709;53.480;9.688;2022-09-09T07:52:07;19.90;99.90
2407;DHT22;37709;53.480;9.688;2022-09-09T07:54:35;19.60;99.90
2407;DHT22;37709;53.480;9.688;2022-09-09T07:57:05;19.20;99.90
2407;DHT22;37709;53.480;9.688;2022-09-09T07:59:35;19.40;99.90
2407;DHT22;37709;53.480;9.688;2022-09-09T08:02:03;19.20;99.90
2407;DHT22;37709;53.480;9.688;2022-09-09T08:04:34;19.00;99.90
2407;DHT22;37709;53.480;9.688;2022-09-09T08:07:03;18.80;99.90
2407;DHT22;37709;53.480;9.688;2022-09-09T08:09:35;18.90;99.90
2407;DHT22;37709;53.480;9.688;2022-09-09T08:12:18;18.80;99.90
2407;DHT22;37709;53.480;9.688;2022-09-09T08:14:47;18.70;99.90
2407;DHT22;37709;53.480;9.688;2022-09-09T08:17:15;18.70;99.90
2407;DHT22;37709;53.480;9.688;2022-09-09T08:19:44;18.70;99.90
2407;DHT22;37709;53.480;9.688;2022-09-09T08:22:17;18.40;99.90
2407;DHT22;37709;53.480;9.688;2022-09-09T08:24:44;18.00;99.90
2407;DHT22;37709;53.480;9.688;2022-09-09T08:27:12;17.80;99.90
2407;DHT22;37709;53.480;9.688;2022-09-09T08:29:40;17.90;99.90
2407;DHT22;37709;53.480;9.688;2022-09-09T08:32:08;18.10;99.90
2407;DHT22;37709;53.480;9.688;2022-09-09T08:34:37;18.40;99.90
2407;DHT22;37709;53.480;9.688;2022-09-09T08:37:11;18.80;99.90
2407;DHT22;37709;53.480;9.688;2022-09-09T08:39:40;19.00;99.90
2407;DHT22;37709;53.480;9.688;2022-09-09T08:45:30;19.10;99.90
2407;DHT22;37709;53.480;9.688;2022-09-09T08:48:33;19.00;99.90
2407;DHT22;37709;53.480;9.688;2022-09-09T08:51:06;19.00;99.90
2407;DHT22;37709;53.480;9.688;2022-09-09T08:53:42;19.10;99.90
2407;DHT22;37709;53.480;9.688;2022-09-09T08:56:14;19.00;99.90
2407;DHT22;37709;53.480;9.688;2022-09-09T08:58:51;19.00;99.90
2407;DHT22;37709;53.480;9.688;2022-09-09T09:10:09;19.70;99.90
2407;DHT22;37709;53.480;9.688;2022-09-09T09:13:00;19.70;99.90
2407;DHT22;37709;53.480;9.688;2022-09-09T09:15:36;21.20;99.90
2407;DHT22;37709;53.480;9.688;2022-09-09T09:18:05;22.60;99.90
2407;DHT22;37709;53.480;9.688;2022-09-09T09:20:58;22.60;99.90
2407;DHT22;37709;53.480;9.688;2022-09-09T09:23:58;23.40;99.90
2407;DHT22;37709;53.480;9.688;2022-09-09T09:26:34;26.60;99.90
2407;DHT22;37709;53.480;9.688;2022-09-09T09:29:17;29.10;99.90
2407;DHT22;37709;53.480;9.688;2022-09-09T09:31:52;29.40;99.90
2407;DHT22;37709;53.480;9.688;2022-09-09T09:34:24;30.00;99.90
2407;DHT22;37709;53.480;9.688;2022-09-09T09:36:58;30.00;99.90
2407;DHT22;37709;53.480;9.688;2022-09-09T09:39:33;30.40;99.90
2407;DHT22;37709;53.480;9.688;2022-09-09T09:42:23;31.60;98.70
2407;DHT22;37709;53.480;9.688;2022-09-09T09:44:55;31.30;95.70
2407;DHT22;37709;53.480;9.688;2022-09-09T09:47:23;29.70;97.10
2407;DHT22;37709;53.480;9.688;2022-09-09T09:50:01;29.30;96.10
2407;DHT22;37709;53.480;9.688;2022-09-09T09:52:35;29.20;96.50
2407;DHT22;37709;53.480;9.688;2022-09-09T09:55:05;29.30;95.80
2407;DHT22;37709;53.480;9.688;2022-09-09T09:57:39;29.20;94.60
2407;DHT22;37709;53.480;9.688;2022-09-09T10:00:15;29.60;93.80
2407;DHT22;37709;53.480;9.688;2022-09-09T10:02:51;31.40;92.10
2407;DHT22;37709;53.480;9.688;2022-09-09T10:05:30;33.00;87.10
2407;DHT22;37709;53.480;9.688;2022-09-09T10:08:11;33.60;82.50
2407;DHT22;37709;53.480;9.688;2022-09-09T10:13:33;33.70;81.50
2407;DHT22;37709;53.480;9.688;2022-09-09T10:19:13;36.20;72.00
2407;DHT22;37709;53.480;9.688;2022-09-09T10:27:18;36.90;67.10
2407;DHT22;37709;53.480;9.688;2022-09-09T10:30:18;37.20;64.00
2407;DHT22;37709;53.480;9.688;2022-09-09T10:32:49;34.70;67.90
2407;DHT22;37709;53.480;9.688;2022-09-09T10:43:39;37.10;63.20
2407;DHT22;37709;53.480;9.688;2022-09-09T10:46:33;38.60;60.50
2407;DHT22;37709;53.480;9.688;2022-09-09T10:54:56;38.50;54.70
2407;DHT22;37709;53.480;9.688;2022-09-09T10:57:33;39.40;52.50
2407;DHT22;37709;53.480;9.688;2022-09-09T11:00:06;39.10;55.30
2407;DHT22;37709;53.480;9.688;2022-09-09T11:02:41;38.30;53.40
2407;DHT22;37709;53.480;9.688;2022-09-09T11:05:15;39.60;52.80
2407;DHT22;37709;53.480;9.688;2022-09-09T11:07:55;40.10;47.70
2407;DHT22;37709;53.480;9.688;2022-09-09T11:10:46;38.40;49.30
2407;DHT22;37709;53.480;9.688;2022-09-09T11:16:44;38.40;50.50
2407;DHT22;37709;53.480;9.688;2022-09-09T11:18:46;38.40;50.10
2407;DHT22;37709;53.480;9.688;2022-09-09T11:21:23;38.80;48.30
2407;DHT22;37709;53.480;9.688;2022-09-09T11:23:57;38.40;47.80
2407;DHT22;37709;53.480;9.688;2022-09-09T11:26:35;36.60;51.70
2407;DHT22;37709;53.480;9.688;2022-09-09T11:32:12;37.40;49.30
2407;DHT22;37709;53.480;9.688;2022-09-09T11:35:11;35.10;51.60
2407;DHT22;37709;53.480;9.688;2022-09-09T11:40:23;35.80;53.80
2407;DHT22;37709;53.480;9.688;2022-09-09T11:43:14;38.30;50.20
2407;DHT22;37709;53.480;9.688;2022-09-09T11:45:43;39.80;48.40
2407;DHT22;37709;53.480;9.688;2022-09-09T11:48:33;40.20;46.20
2407;DHT22;37709;53.480;9.688;2022-09-09T11:51:10;39.20;46.90
2407;DHT22;37709;53.480;9.688;2022-09-09T11:53:55;38.40;47.80
2407;DHT22;37709;53.480;9.688;2022-09-09T11:59:17;35.00;51.70
2407;DHT22;37709;53.480;9.688;2022-09-09T12:01:58;35.60;52.10
2407;DHT22;37709;53.480;9.688;2022-09-09T12:04:36;33.80;53.70
2407;DHT22;37709;53.480;9.688;2022-09-09T12:07:25;32.40;58.50
2407;DHT22;37709;53.480;9.688;2022-09-09T12:12:48;31.10;60.60
2407;DHT22;37709;53.480;9.688;2022-09-09T12:18:01;29.40;61.50
2407;DHT22;37709;53.480;9.688;2022-09-09T12:28:39;32.70;58.20
2407;DHT22;37709;53.480;9.688;2022-09-09T12:31:31;31.80;59.80
2407;DHT22;37709;53.480;9.688;2022-09-09T12:34:24;31.00;59.70
2407;DHT22;37709;53.480;9.688;2022-09-09T12:36:59;30.20;62.80
2407;DHT22;37709;53.480;9.688;2022-09-09T12:39:41;29.10;66.10
2407;DHT22;37709;53.480;9.688;2022-09-09T12:42:17;27.80;68.90
2407;DHT22;37709;53.480;9.688;2022-09-09T12:47:22;26.20;72.60
2407;DHT22;37709;53.480;9.688;2022-09-09T12:49:56;25.70;74.70
2407;DHT22;37709;53.480;9.688;2022-09-09T12:52:31;25.10;76.20
2407;DHT22;37709;53.480;9.688;2022-09-09T12:55:02;24.80;77.00
2407;DHT22;37709;53.480;9.688;2022-09-09T12:57:36;24.30;76.80
2407;DHT22;37709;53.480;9.688;2022-09-09T13:00:17;24.00;79.20
2407;DHT22;37709;53.480;9.688;2022-09-09T13:02:48;23.60;78.10
2407;DHT22;37709;53.480;9.688;2022-09-09T13:05:23;23.60;80.10
2407;DHT22;37709;53.480;9.688;2022-09-09T13:08:04;23.40;80.30
2407;DHT22;37709;53.480;9.688;2022-09-09T13:10:36;23.00;83.30
2407;DHT22;37709;53.480;9.688;2022-09-09T13:13:29;22.80;84.90
2407;DHT22;37709;53.480;9.688;2022-09-09T13:16:00;22.60;84.00
2407;DHT22;37709;53.480;9.688;2022-09-09T13:18:34;22.20;83.90
2407;DHT22;37709;53.480;9.688;2022-09-09T13:21:02;21.90;84.90
2407;DHT22;37709;53.480;9.688;2022-09-09T13:23:34;21.50;86.50
2407;DHT22;37709;53.480;9.688;2022-09-09T13:26:23;21.40;87.30
2407;DHT22;37709;53.480;9.688;2022-09-09T13:28:53;21.10;89.90
2407;DHT22;37709;53.480;9.688;2022-09-09T13:31:24;20.70;91.20
2407;DHT22;37709;53.480;9.688;2022-09-09T13:33:54;20.60;92.60
2407;DHT22;37709;53.480;9.688;2022-09-09T13:36:31;20.40;94.60
2407;DHT22;37709;53.480;9.688;2022-09-09T13:38:59;20.40;96.80
2407;DHT22;37709;53.480;9.688;2022-09-09T13:41:33;20.20;99.20
2407;DHT22;37709;53.480;9.688;2022-09-09T13:44:03;20.10;99.90
2407;DHT22;37709;53.480;9.688;2022-09-09T13:46:36;20.00;99.90
2407;DHT22;37709;53.480;9.688;2022-09-09T13:54:09;19.60;99.90
2407;DHT22;37709;53.480;9.688;2022-09-09T13:56:39;19.60;99.90
2407;DHT22;37709;53.480;9.688;2022-09-09T13:59:14;19.60;99.90
2407;DHT22;37709;53.480;9.688;2022-09-09T14:01:42;19.70;99.90
2407;DHT22;37709;53.480;9.688;2022-09-09T14:04:09;19.70;99.90
2407;DHT22;37709;53.480;9.688;2022-09-09T14:06:38;19.60;99.90
2407;DHT22;37709;53.480;9.688;2022-09-09T14:09:07;19.60;99.90
2407;DHT22;37709;53.480;9.688;2022-09-09T14:11:37;19.30;99.90
2407;DHT22;37709;53.480;9.688;2022-09-09T14:14:05;19.10;99.90
2407;DHT22;37709;53.480;9.688;2022-09-09T14:16:33;19.10;99.90
2407;DHT22;37709;53.480;9.688;2022-09-09T14:19:26;18.90;99.90
2407;DHT22;37709;53.480;9.688;2022-09-09T14:21:54;18.80;99.90
2407;DHT22;37709;53.480;9.688;2022-09-09T14:24:22;18.60;99.90
2407;DHT22;37709;53.480;9.688;2022-09-09T14:26:50;18.30;99.90
2407;DHT22;37709;53.480;9.688;2022-09-09T14:29:17;18.10;99.90
2407;DHT22;37709;53.480;9.688;2022-09-09T14:31:44;17.80;99.90
2407;DHT22;37709;53.480;9.688;2022-09-09T14:34:12;17.60;99.90
2407;DHT22;37709;53.480;9.688;2022-09-09T14:36:41;17.40;99.90
2407;DHT22;37709;53.480;9.688;2022-09-09T14:39:08;17.30;99.90
2407;DHT22;37709;53.480;9.688;2022-09-09T14:41:36;17.20;99.90
2407;DHT22;37709;53.480;9.688;2022-09-09T14:44:04;17.10;99.90
2407;DHT22;37709;53.480;9.688;2022-09-09T14:46:32;17.10;99.90
2407;DHT22;37709;53.480;9.688;2022-09-09T14:49:25;17.10;99.90
2407;DHT22;37709;53.480;9.688;2022-09-09T14:51:52;17.10;99.90
2407;DHT22;37709;53.480;9.688;2022-09-09T14:54:20;17.20;99.90
2407;DHT22;37709;53.480;9.688;2022-09-09T14:56:48;17.10;99.90
2407;DHT22;37709;53.480;9.688;2022-09-09T14:59:16;17.10;99.90
2407;DHT22;37709;53.480;9.688;2022-09-09T15:01:43;17.00;99.90
2407;DHT22;37709;53.480;9.688;2022-09-09T15:04:12;16.90;99.90
2407;DHT22;37709;53.480;9.688;2022-09-09T15:06:41;16.90;99.90
2407;DHT22;37709;53.480;9.688;2022-09-09T15:09:10;16.80;99.90
2407;DHT22;37709;53.480;9.688;2022-09-09T15:11:37;16.90;99.90
2407;DHT22;37709;53.480;9.688;2022-09-09T15:14:06;16.90;99.90
2407;DHT22;37709;53.480;9.688;2022-09-09T15:16:35;17.00;99.90
2407;DHT22;37709;53.480;9.688;2022-09-09T15:19:03;17.00;99.90
2407;DHT22;37709;53.480;9.688;2022-09-09T15:21:33;17.20;99.90
2407;DHT22;37709;53.480;9.688;2022-09-09T15:24:01;17.30;99.90
2407;DHT22;37709;53.480;9.688;2022-09-09T15:26:29;17.40;99.90
2407;DHT22;37709;53.480;9.688;2022-09-09T15:28:57;17.60;99.90
2407;DHT22;37709;53.480;9.688;2022-09-09T15:31:28;17.90;99.90
2407;DHT22;37709;53.480;9.688;2022-09-09T15:33:59;17.90;99.90
2407;DHT22;37709;53.480;9.688;2022-09-09T15:36:31;18.00;99.90
2407;DHT22;37709;53.480;9.688;2022-09-09T15:39:00;18.00;99.90
2407;DHT22;37709;53.480;9.688;2022-09-09T15:41:28;18.00;99.90
2407;DHT22;37709;53.480;9.688;2022-09-09T15:43:56;18.10;99.90
2407;DHT22;37709;53.480;9.688;2022-09-09T15:46:33;18.30;99.90
2407;DHT22;37709;53.480;9.688;2022-09-09T15:49:07;18.40;99.90
2407;DHT22;37709;53.480;9.688;2022-09-09T15:51:38;18.40;99.90
2407;DHT22;37709;53.480;9.688;2022-09-09T15:54:16;18.60;99.90
2407;DHT22;37709;53.480;9.688;2022-09-09T15:56:54;18.70;99.90
2407;DHT22;37709;53.480;9.688;2022-09-09T15:59:26;18.70;99.90
2407;DHT22;37709;53.480;9.688;2022-09-09T16:01:55;18.80;99.90
2407;DHT22;37709;53.480;9.688;2022-09-09T16:04:24;18.60;99.90
2407;DHT22;37709;53.480;9.688;2022-09-09T16:07:00;18.50;99.90
2407;DHT22;37709;53.480;9.688;2022-09-09T16:09:28;18.30;99.90
2407;DHT22;37709;53.480;9.688;2022-09-09T16:11:57;18.20;99.90
2407;DHT22;37709;53.480;9.688;2022-09-09T16:14:26;18.10;99.90
2407;DHT22;37709;53.480;9.688;2022-09-09T16:16:54;17.90;99.90
2407;DHT22;37709;53.480;9.688;2022-09-09T16:19:24;17.80;99.90
2407;DHT22;37709;53.480;9.688;2022-09-09T16:21:53;17.70;99.90
2407;DHT22;37709;53.480;9.688;2022-09-09T16:24:20;17.70;99.90
2407;DHT22;37709;53.480;9.688;2022-09-09T16:26:51;17.60;99.90
2407;DHT22;37709;53.480;9.688;2022-09-09T16:29:19;17.60;99.90
2407;DHT22;37709;53.480;9.688;2022-09-09T16:31:49;17.50;99.90
2407;DHT22;37709;53.480;9.688;2022-09-09T16:34:19;17.50;99.90
2407;DHT22;37709;53.480;9.688;2022-09-09T16:36:47;17.50;99.90
2407;DHT22;37709;53.480;9.688;2022-09-09T16:39:18;17.50;99.90
2407;DHT22;37709;53.480;9.688;2022-09-09T16:41:47;17.50;99.90
2407;DHT22;37709;53.480;9.688;2022-09-09T16:44:16;17.30;99.90
2407;DHT22;37709;53.480;9.688;2022-09-09T16:46:47;17.20;99.90
2407;DHT22;37709;53.480;9.688;2022-09-09T16:49:16;17.10;99.90
2407;DHT22;37709;53.480;9.688;2022-09-09T16:51:49;17.00;99.90
2407;DHT22;37709;53.480;9.688;2022-09-09T16:54:20;16.80;99.90
2407;DHT22;37709;53.480;9.688;2022-09-09T16:56:49;16.70;99.90
2407;DHT22;37709;53.480;9.688;2022-09-09T16:59:19;16.60;99.90
2407;DHT22;37709;53.480;9.688;2022-09-09T17:01:48;16.50;99.90
2407;DHT22;37709;53.480;9.688;2022-09-09T17:04:18;16.40;99.90
2407;DHT22;37709;53.480;9.688;2022-09-09T17:06:52;16.30;99.90
2407;DHT22;37709;53.480;9.688;2022-09-09T17:09:21;16.20;99.90
2407;DHT22;37709;53.480;9.688;2022-09-09T17:11:50;16.20;99.90
2407;DHT22;37709;53.480;9.688;2022-09-09T17:14:19;16.20;99.90
2407;DHT22;37709;53.480;9.688;2022-09-09T17:16:47;16.10;99.90
2407;DHT22;37709;53.480;9.688;2022-09-09T17:19:15;16.00;99.90
2407;DHT22;37709;53.480;9.688;2022-09-09T17:21:43;15.90;99.90
2407;DHT22;37709;53.480;9.688;2022-09-09T17:24:30;15.80;99.90
2407;DHT22;37709;53.480;9.688;2022-09-09T17:26:57;15.60;99.90
2407;DHT22;37709;53.480;9.688;2022-09-09T17:29:25;15.50;99.90
2407;DHT22;37709;53.480;9.688;2022-09-09T17:31:53;15.40;99.90
2407;DHT22;37709;53.480;9.688;2022-09-09T17:34:22;15.30;99.90
2407;DHT22;37709;53.480;9.688;2022-09-09T17:36:49;15.20;99.90
2407;DHT22;37709;53.480;9.688;2022-09-09T17:39:17;15.10;99.90
2407;DHT22;37709;53.480;9.688;2022-09-09T17:41:44;14.90;99.90
2407;DHT22;37709;53.480;9.688;2022-09-09T17:44:12;14.70;99.90
2407;DHT22;37709;53.480;9.688;2022-09-09T17:46:42;14.60;99.90
2407;DHT22;37709;53.480;9.688;2022-09-09T17:49:14;14.40;99.90
2407;DHT22;37709;53.480;9.688;2022-09-09T17:51:44;14.30;99.90
2407;DHT22;37709;53.480;9.688;2022-09-09T17:54:16;14.30;99.90
2407;DHT22;37709;53.480;9.688;2022-09-09T17:56:44;14.20;99.90
2407;DHT22;37709;53.480;9.688;2022-09-09T17:59:15;14.10;99.90
2407;DHT22;37709;53.480;9.688;2022-09-09T18:01:44;14.10;99.90
2407;DHT22;37709;53.480;9.688;2022-09-09T18:04:14;14.00;99.90
2407;DHT22;37709;53.480;9.688;2022-09-09T18:06:48;14.00;99.90
2407;DHT22;37709;53.480;9.688;2022-09-09T18:09:19;13.90;99.90